createdAt,value
2018-06-19T05:56:18.298Z,20.40
2018-06-19T05:58:46.074Z,23.30
2018-06-19T06:01:13.865Z,21.90
2018-06-19T06:03:41.691Z,23.90
2018-06-19T06:06:09.802Z,20.35
2018-06-19T06:08:38.421Z,29.07
2018-06-19T06:11:06.633Z,26.07
2018-06-19T06:13:34.840Z,21.13
2018-06-19T06:16:03.625Z,19.47
2018-06-19T06:18:31.656Z,23.47
2018-06-19T06:20:59.940Z,23.40
2018-06-19T06:23:28.211Z,24.85
2018-06-19T06:25:56.246Z,20.13
2018-06-19T06:28:24.079Z,22.60
2018-06-19T06:30:52.584Z,22.50
2018-06-19T06:33:20.325Z,21.30
2018-06-19T06:35:48.204Z,19.03
2018-06-19T06:38:16.241Z,27.87
2018-06-19T06:40:45.199Z,33.10
2018-06-19T06:43:13.192Z,24.70
2018-06-19T06:45:45.810Z,24.20
2018-06-19T06:48:13.754Z,22.90
2018-06-19T06:50:41.546Z,28.17
2018-06-19T06:53:09.681Z,23.00
2018-06-19T06:55:37.541Z,26.57
2018-06-19T06:58:05.327Z,24.97
2018-06-19T07:00:33.468Z,26.00
2018-06-19T07:03:01.230Z,17.53
2018-06-19T07:05:29.366Z,32.77
2018-06-19T07:07:57.196Z,26.93
2018-06-19T07:10:27.548Z,27.10
2018-06-19T07:12:55.483Z,29.47
2018-06-19T07:15:24.123Z,25.17
2018-06-19T07:17:52.386Z,25.10
2018-06-19T07:20:20.462Z,23.97
2018-06-19T07:22:48.909Z,26.00
2018-06-19T07:25:16.719Z,27.43
2018-06-19T07:27:51.384Z,24.80
2018-06-19T07:30:19.291Z,23.40
2018-06-19T07:32:47.341Z,28.33
2018-06-19T07:35:15.138Z,29.50
2018-06-19T07:37:43.164Z,26.40
2018-06-19T07:40:12.069Z,28.80
2018-06-19T07:42:40.233Z,20.30
2018-06-19T07:45:08.414Z,27.57
2018-06-19T07:47:36.690Z,32.80
2018-06-19T07:50:05.171Z,23.60
2018-06-19T07:52:32.928Z,29.80
2018-06-19T07:55:01.477Z,18.30
2018-06-19T07:57:30.210Z,19.03
2018-06-19T07:59:59.751Z,21.40
2018-06-19T08:02:27.823Z,24.63
2018-06-19T08:04:55.776Z,18.13
2018-06-19T08:07:23.639Z,19.10
2018-06-19T08:09:51.382Z,17.90
2018-06-19T08:12:19.352Z,19.13
2018-06-19T08:14:47.440Z,16.00
2018-06-19T08:17:15.728Z,24.90
2018-06-19T08:19:43.564Z,48.83
2018-06-19T08:22:12.289Z,22.83
2018-06-19T08:24:40.479Z,16.77
2018-06-19T08:27:08.229Z,18.50
2018-06-19T08:29:36.130Z,21.30
2018-06-19T08:32:04.091Z,14.90
2018-06-19T08:34:32.447Z,18.60
2018-06-19T08:37:00.326Z,23.13
2018-06-19T08:39:28.238Z,18.20
2018-06-19T08:41:55.931Z,20.80
2018-06-19T08:44:23.766Z,16.37
2018-06-19T08:46:51.479Z,18.67
2018-06-19T08:49:19.264Z,20.47
2018-06-19T08:51:47.202Z,18.60
2018-06-19T08:54:15.085Z,11.33
2018-06-19T08:56:43.002Z,16.77
2018-06-19T08:59:10.692Z,16.40
2018-06-19T09:01:38.566Z,18.37
2018-06-19T09:04:06.342Z,16.47
2018-06-19T09:06:35.169Z,20.50
2018-06-19T09:09:03.207Z,17.40
2018-06-19T09:11:31.093Z,18.87
2018-06-19T09:13:58.942Z,17.03
2018-06-19T09:16:26.802Z,19.37
2018-06-19T09:18:54.594Z,12.43
2018-06-19T09:21:24.166Z,16.47
2018-06-19T09:23:52.615Z,14.10
2018-06-19T09:26:20.580Z,18.90
2018-06-19T09:28:48.470Z,11.70
2018-06-19T09:31:16.486Z,14.90
2018-06-19T09:33:44.188Z,15.20
2018-06-19T09:36:11.971Z,45.57
2018-06-19T09:38:40.601Z,13.97
2018-06-19T09:41:08.338Z,20.20
2018-06-19T09:43:36.052Z,9.43
2018-06-19T09:46:03.984Z,11.23
2018-06-19T09:48:31.853Z,8.63
2018-06-19T09:50:59.583Z,14.70
2018-06-19T09:53:27.458Z,13.73
2018-06-19T09:55:55.611Z,15.03
2018-06-19T09:58:23.738Z,13.83
2018-06-19T10:00:51.642Z,7.13
2018-06-19T10:03:19.468Z,13.53
2018-06-19T10:05:49.615Z,15.47
2018-06-19T10:08:17.521Z,9.93
2018-06-19T10:10:45.421Z,13.57
2018-06-19T10:13:13.663Z,11.67
2018-06-19T10:15:41.564Z,9.90
2018-06-19T10:18:10.064Z,12.73
2018-06-19T10:20:38.212Z,9.40
2018-06-19T10:23:05.968Z,10.03
2018-06-19T10:25:34.101Z,15.37
2018-06-19T10:28:01.795Z,10.80
2018-06-19T10:30:29.963Z,13.60
2018-06-19T10:33:01.724Z,12.03
2018-06-19T10:35:29.568Z,12.13
2018-06-19T10:37:57.295Z,16.00
2018-06-19T10:40:25.093Z,14.80
2018-06-19T10:42:53.169Z,14.00
2018-06-19T10:45:21.165Z,21.03
2018-06-19T10:47:49.105Z,18.53
2018-06-19T10:50:17.087Z,15.60
2018-06-19T10:52:44.835Z,14.20
2018-06-19T10:55:12.608Z,15.83
2018-06-19T10:57:40.610Z,13.27
2018-06-19T11:00:08.697Z,14.77
2018-06-19T11:02:36.617Z,13.13
2018-06-19T11:05:04.627Z,21.17
2018-06-19T11:07:33.133Z,11.27
2018-06-19T11:10:01.707Z,12.00
2018-06-19T11:12:29.725Z,16.43
2018-06-19T11:14:58.295Z,18.03
2018-06-19T11:17:27.025Z,15.70
2018-06-19T11:19:55.767Z,8.70
2018-06-19T11:22:23.465Z,8.50
2018-06-19T11:24:51.204Z,6.33
2018-06-19T11:27:19.097Z,9.87
2018-06-19T11:29:46.874Z,7.47
2018-06-19T11:32:15.012Z,11.47
2018-06-19T11:34:43.161Z,21.10
2018-06-19T11:37:10.919Z,12.80
2018-06-19T11:39:38.881Z,11.33
2018-06-19T11:42:06.975Z,7.27
2018-06-19T11:44:36.367Z,6.50
2018-06-19T11:47:07.460Z,8.10
2018-06-19T11:49:42.289Z,9.07
2018-06-19T11:52:11.580Z,11.53
2018-06-19T11:54:40.260Z,8.50
2018-06-19T11:57:09.199Z,8.40
2018-06-19T11:59:37.127Z,11.10
2018-06-19T12:02:05.183Z,7.90
2018-06-19T12:07:00.532Z,12.90
2018-06-19T12:09:29.355Z,4.97
2018-06-19T12:11:57.560Z,2.87
2018-06-19T12:14:25.356Z,12.43
2018-06-19T12:16:53.251Z,10.20
2018-06-19T12:19:21.107Z,10.00
2018-06-19T12:21:49.448Z,6.20
2018-06-19T12:24:18.402Z,6.10
2018-06-19T12:26:46.417Z,4.10
2018-06-19T12:29:14.419Z,5.50
2018-06-19T12:31:42.294Z,12.20
2018-06-19T12:34:11.281Z,16.40
2018-06-19T12:36:39.404Z,10.73
2018-06-19T12:39:15.087Z,9.77
2018-06-19T12:41:45.156Z,6.50
2018-06-19T12:44:13.461Z,4.83
2018-06-19T13:09:19.145Z,5.00
2018-06-19T13:11:47.597Z,7.03
2018-06-19T13:14:21.068Z,6.93
2018-06-19T13:17:00.460Z,5.23
2018-06-19T13:19:34.095Z,8.03
2018-06-19T13:22:01.960Z,6.40
2018-06-19T13:24:30.346Z,4.83
2018-06-19T13:26:59.735Z,5.57
2018-06-19T13:29:40.276Z,9.13
2018-06-19T13:32:08.687Z,4.60
2018-06-19T13:34:37.018Z,3.57
2018-06-19T13:37:05.545Z,6.17
2018-06-19T13:39:34.099Z,5.60
2018-06-19T13:42:07.491Z,9.13
2018-06-19T13:44:40.734Z,11.23
2018-06-19T13:47:09.525Z,8.60
2018-06-19T13:49:38.166Z,8.93
2018-06-19T14:31:28.946Z,8.40
2018-06-19T14:33:57.146Z,9.63
2018-06-19T14:36:25.078Z,6.67
2018-06-19T14:38:52.803Z,9.83
2018-06-19T14:43:47.769Z,11.43
2018-06-19T14:46:15.742Z,9.83
2018-06-19T14:48:43.712Z,4.00
2018-06-19T15:20:39.375Z,10.20
2018-06-19T15:23:07.238Z,5.90
2018-06-19T15:25:35.191Z,6.57
2018-06-19T15:28:03.243Z,6.45
2018-06-19T15:50:10.760Z,2.75
2018-06-19T15:55:06.245Z,4.05
2018-06-19T16:00:02.453Z,2.70
2018-06-19T16:07:24.794Z,6.95
2018-06-19T16:49:12.711Z,5.70
2018-06-19T16:51:40.417Z,8.67
2018-06-19T16:54:08.343Z,7.53
2018-06-19T16:56:36.355Z,6.50
2018-06-19T16:59:04.106Z,7.40
2018-06-19T17:01:32.643Z,4.50
2018-06-19T17:04:00.493Z,11.70
2018-06-19T17:06:29.005Z,7.20
2018-06-19T17:08:59.450Z,8.23
2018-06-19T17:11:30.051Z,6.45
2018-06-19T17:14:08.845Z,5.90
2018-06-19T17:19:32.694Z,5.60
2018-06-19T17:27:30.908Z,5.90
2018-06-19T18:20:58.541Z,10.57
2018-06-19T18:26:21.313Z,11.10
2018-06-19T18:29:00.851Z,10.03
2018-06-19T18:37:27.950Z,10.80
2018-06-19T18:40:01.105Z,9.10
2018-06-19T18:42:29.620Z,6.53
2018-06-19T18:44:58.621Z,6.00
2018-06-19T18:47:31.672Z,9.23
2018-06-19T18:50:11.583Z,12.73
2018-06-19T19:00:49.501Z,7.30
2018-06-19T19:03:34.350Z,10.40
2018-06-19T19:06:09.989Z,12.65
2018-06-19T19:08:51.618Z,10.80
2018-06-19T19:11:32.518Z,12.65
2018-06-19T19:14:16.756Z,11.80
2018-06-19T19:19:25.219Z,21.07
2018-06-19T19:27:13.238Z,10.27
2018-06-19T19:29:51.767Z,13.90
2018-06-19T19:32:23.844Z,19.13
2018-06-19T19:45:10.764Z,7.10
2018-06-19T19:47:47.629Z,12.00
2018-06-19T20:11:03.348Z,19.70
2018-06-19T20:29:54.187Z,17.50
2018-06-19T20:37:23.442Z,20.53
2018-06-19T20:42:27.415Z,26.43
2018-06-19T20:44:58.712Z,13.03
2018-06-19T20:47:33.766Z,20.43
2018-06-19T20:50:11.606Z,4.17
2018-06-19T20:52:56.675Z,15.30
2018-06-19T20:55:36.387Z,12.50
2018-06-19T20:58:07.928Z,17.97
2018-06-19T21:00:37.789Z,14.37
2018-06-19T21:03:09.399Z,20.10
2018-06-19T21:05:40.569Z,14.23
2018-06-19T21:08:09.755Z,14.20
2018-06-19T21:10:38.129Z,12.60
2018-06-19T21:13:08.710Z,14.27
2018-06-19T21:15:37.970Z,20.53
2018-06-19T21:18:07.730Z,11.43
2018-06-19T21:20:35.747Z,9.53
2018-06-19T21:23:05.088Z,12.30
2018-06-19T21:25:33.033Z,22.27
2018-06-19T21:28:01.188Z,9.77
2018-06-19T21:30:31.928Z,8.60
2018-06-19T21:33:01.277Z,13.83
2018-06-19T21:35:31.030Z,11.90
2018-06-19T21:38:03.803Z,7.50
2018-06-19T21:40:36.289Z,10.37
2018-06-19T21:43:06.119Z,13.33
2018-06-19T21:45:36.321Z,16.10
2018-06-19T21:48:07.535Z,16.60
2018-06-19T21:50:40.622Z,12.23
2018-06-19T21:53:11.916Z,15.10
2018-06-19T21:55:41.716Z,10.00
2018-06-19T21:58:11.302Z,11.60
2018-06-19T22:00:47.430Z,18.93
2018-06-19T22:03:17.995Z,14.27
2018-06-19T22:05:47.521Z,13.63
2018-06-19T22:08:17.234Z,15.17
2018-06-19T22:10:45.776Z,7.07
2018-06-19T22:13:15.175Z,9.40
2018-06-19T22:15:43.875Z,8.40
2018-06-19T22:18:16.307Z,14.90
2018-06-19T22:20:44.506Z,17.47
2018-06-19T22:23:15.961Z,22.30
2018-06-19T22:25:44.901Z,7.70
2018-06-19T22:28:13.318Z,11.03
2018-06-19T22:30:42.239Z,12.63
2018-06-19T22:33:12.502Z,24.07
2018-06-19T22:35:41.248Z,13.03
2018-06-19T22:38:10.208Z,20.27
2018-06-19T22:40:38.885Z,13.00
2018-06-19T22:43:08.040Z,18.50
2018-06-19T22:45:37.107Z,13.23
2018-06-19T22:48:09.553Z,9.93
2018-06-19T22:50:41.286Z,16.70
2018-06-19T22:53:11.307Z,12.57
2018-06-19T22:55:40.307Z,13.83
2018-06-19T22:58:10.065Z,16.83
2018-06-19T23:00:39.238Z,18.60
2018-06-19T23:03:07.705Z,13.13
2018-06-19T23:05:37.905Z,13.87
2018-06-19T23:08:07.926Z,20.97
2018-06-19T23:10:36.273Z,21.63
2018-06-19T23:13:05.391Z,8.90
2018-06-19T23:15:33.828Z,19.03
2018-06-19T23:18:02.907Z,10.70
2018-06-19T23:20:30.883Z,16.43
2018-06-19T23:22:59.747Z,15.77
2018-06-19T23:25:30.620Z,24.03
2018-06-19T23:27:58.716Z,12.20
2018-06-19T23:30:26.440Z,9.20
2018-06-19T23:32:54.439Z,14.57
2018-06-19T23:35:22.557Z,20.00
2018-06-19T23:37:52.449Z,10.17
2018-06-19T23:40:22.283Z,12.20
2018-06-19T23:42:51.598Z,11.10
2018-06-19T23:45:20.546Z,13.77
2018-06-19T23:47:48.726Z,22.33
2018-06-19T23:50:17.108Z,20.37
2018-06-19T23:52:45.606Z,8.30
2018-06-19T23:55:13.617Z,16.57
2018-06-19T23:57:41.503Z,12.70
